19MI weather

Mecosta County General Hospital Heliport
Big Rapids, Michigan, United States

Public forecast

Using degrees Fahrenheit for public forecast. Weather courtesy of forecast.io.

METAR (pilot weather report)

Closest report is Roben Hood Airport, 2.1 nm (3.9 km) NW. Retrieved 2019/09/19 11:35 UTC (10 minutes ago):

KRQB 191135Z AUTO 00000KT 10SM CLR 14/13 A3014 RMK AO2 T01440125

TAF (pilot weather forecast)

Closest forecast is Muskegon County Airport, 45.9 nm (85.0 km) SW. Retrieved 2019/09/19 06:42 UTC (5 hours ago):

TAF KMKG 190540Z 1906/2006 15007KT P6SM SCT250